Airfield :
LOGIN :

Register | Disclaimer

   EN    FR    IT 

 










Legend :    VFR   Marginal VFR   IFR   Intensive IFR   Very Intensive IFR
Visi :
Ceiling :
>= 8 km
>= 3000ft
5 to 8 km
1000 to 3000 ft
1500m to 5 km
500 to 1000 ft
800 to 1500m
200 to 500 ft
< 800m
< 200 ft
Symbols :   Thunderstorms  Fog  Heavy snow  Heavy precipitations  Wind > 20 kt
SIGMETs :     Misc.  Thunderstorms  Icing  Turbulence  Mountain Waves  Volcanic Ashes







- Airport Elevation : 659 ft
- IATA code : LYN
- Download approach charts


LFLY - Lyon Bron

CURRENT METAR :
  • 101630Z AUTO 32007KT 9999 OVC054 08/02 Q1027 NOSIG

EXPIRED METARs :
  • 101600Z AUTO 31008KT 9999 BKN052 09/03 Q1027 NOSIG
  • 101530Z AUTO 30006KT 9999 SCT054 09/03 Q1027 NOSIG
  • 101500Z AUTO 32006KT 9999 FEW031 09/03 Q1027 NOSIG
  • 101430Z AUTO 01005KT 9999 BKN031 BKN038 BKN048 09/05 Q1027 NOSIG

TAF TAF LFLY
Valid from the 10 at 12:00 until the 11 at 12:00 UTC


101100Z 1012/1112 35007KT 9999 SCT040
TEMPO 1012/1015 -SHRA SCT014TCU BKN030
TEMPO 1104/1110 BKN014
PROB40
TEMPO 1106/1109 4000 BR BKN002
ATIS : +33 4 72 15 87 96
No reported NOTAMs for that airfield.
2 SIGMETs reported for the Marseille FIR (LFMM) :
 
Severe turbulence
LFMM SIGMET 12 VALID 101400/101800 LFPW
LFMM MARSEILLE FIR/UIR SEV TURB FCST WI N4630 E00600 - N4630 E00700 - N4400 E00700 - N4345 E00730 - N4315 E00600 - N4630 E00600 SFC/FL150 STNR NC=
Severe turbulence
LFMM SIGMET 11 VALID 101400/101800 LFPW
LFMM MARSEILLE FIR/UIR SEV TURB FCST WI N4015 E00430 - N4200 E00430 - N4215 E00230 - N4345 E00245 - N4500 E00500 - N4130 E00800 - N3915 E00800 - N4015 E00430 SFC/FL060 STNR NC=



MET'MAP, your aeronautical weather chart ! - Copyright ORBIFLY December 2007 - Disclaimer

ORBIFLY MET'MAP TEAM :

Programming & Development : Alexandra Zaïnal
Concept & Development : Baudouin d'Aumeries
Co-Development & Prog : Marc-Olivier Méhu
Technical & hardware support : Manuel Goepfert

Contact : metmap@orbifly.com




SOURCES & CREDITS :

   NOAA